sensor_id;sensor_type;location;lat;lon;timestamp;temperature;humidity
46217;DHT22;47258;59.424;13.482;2022-10-03T02:56:14;7.20;99.90
46217;DHT22;47258;59.424;13.482;2022-10-03T02:59:45;7.10;99.90
46217;DHT22;47258;59.424;13.482;2022-10-03T03:05:40;7.00;99.90
46217;DHT22;47258;59.424;13.482;2022-10-03T03:08:28;7.00;99.90
46217;DHT22;47258;59.424;13.482;2022-10-03T03:11:43;6.90;99.90
46217;DHT22;47258;59.424;13.482;2022-10-03T03:14:39;6.90;99.90
46217;DHT22;47258;59.424;13.482;2022-10-03T03:17:17;6.90;99.90
46217;DHT22;47258;59.424;13.482;2022-10-03T03:23:10;6.80;99.90
46217;DHT22;47258;59.424;13.482;2022-10-03T03:26:14;6.80;99.90
46217;DHT22;47258;59.424;13.482;2022-10-03T03:28:49;6.80;99.90
46217;DHT22;47258;59.424;13.482;2022-10-03T03:31:27;6.70;99.90
46217;DHT22;47258;59.424;13.482;2022-10-03T03:34:05;6.60;99.90
46217;DHT22;47258;59.424;13.482;2022-10-03T03:36:39;6.60;99.90
46217;DHT22;47258;59.424;13.482;2022-10-03T03:39:28;6.50;99.90
46217;DHT22;47258;59.424;13.482;2022-10-03T03:42:11;6.50;99.90
46217;DHT22;47258;59.424;13.482;2022-10-03T03:45:28;6.50;99.90
46217;DHT22;47258;59.424;13.482;2022-10-03T03:48:23;6.50;99.90
46217;DHT22;47258;59.424;13.482;2022-10-03T03:51:02;6.60;99.90
46217;DHT22;47258;59.424;13.482;2022-10-03T03:54:03;6.50;99.90
46217;DHT22;47258;59.424;13.482;2022-10-03T03:56:48;6.50;99.90
46217;DHT22;47258;59.424;13.482;2022-10-03T03:59:25;6.50;99.90
46217;DHT22;47258;59.424;13.482;2022-10-03T04:02:10;6.40;99.90
46217;DHT22;47258;59.424;13.482;2022-10-03T04:04:59;6.40;99.90
46217;DHT22;47258;59.424;13.482;2022-10-03T04:07:42;6.40;99.90
46217;DHT22;47258;59.424;13.482;2022-10-03T04:10:25;6.40;99.90
46217;DHT22;47258;59.424;13.482;2022-10-03T04:13:18;6.40;99.90
46217;DHT22;47258;59.424;13.482;2022-10-03T04:15:59;6.30;99.90
46217;DHT22;47258;59.424;13.482;2022-10-03T04:18:47;6.30;99.90
46217;DHT22;47258;59.424;13.482;2022-10-03T04:21:49;6.30;99.90
46217;DHT22;47258;59.424;13.482;2022-10-03T04:27:46;6.30;99.90
46217;DHT22;47258;59.424;13.482;2022-10-03T04:30:21;6.20;99.90
46217;DHT22;47258;59.424;13.482;2022-10-03T04:33:07;6.20;99.90
46217;DHT22;47258;59.424;13.482;2022-10-03T04:36:11;6.10;99.90
46217;DHT22;47258;59.424;13.482;2022-10-03T04:38:44;6.00;99.90
46217;DHT22;47258;59.424;13.482;2022-10-03T04:41:23;6.00;99.90
46217;DHT22;47258;59.424;13.482;2022-10-03T04:44:00;6.00;99.90
46217;DHT22;47258;59.424;13.482;2022-10-03T04:46:41;6.00;99.90
46217;DHT22;47258;59.424;13.482;2022-10-03T04:49:15;6.00;99.90
46217;DHT22;47258;59.424;13.482;2022-10-03T04:51:51;5.90;99.90
46217;DHT22;47258;59.424;13.482;2022-10-03T04:54:26;5.90;99.90
46217;DHT22;47258;59.424;13.482;2022-10-03T04:57:01;5.90;99.90
46217;DHT22;47258;59.424;13.482;2022-10-03T04:59:46;5.90;99.90
46217;DHT22;47258;59.424;13.482;2022-10-03T05:02:30;5.90;99.90
46217;DHT22;47258;59.424;13.482;2022-10-03T05:05:13;5.80;99.90
46217;DHT22;47258;59.424;13.482;2022-10-03T05:07:52;5.70;99.90
46217;DHT22;47258;59.424;13.482;2022-10-03T05:13:15;5.60;99.90
46217;DHT22;47258;59.424;13.482;2022-10-03T05:15:50;5.60;99.90
46217;DHT22;47258;59.424;13.482;2022-10-03T05:18:29;5.60;99.90
46217;DHT22;47258;59.424;13.482;2022-10-03T05:21:03;5.70;99.90
46217;DHT22;47258;59.424;13.482;2022-10-03T05:23:42;5.70;99.90
46217;DHT22;47258;59.424;13.482;2022-10-03T05:26:17;5.70;99.90
46217;DHT22;47258;59.424;13.482;2022-10-03T05:28:51;5.80;99.90
46217;DHT22;47258;59.424;13.482;2022-10-03T05:31:28;5.80;99.90
46217;DHT22;47258;59.424;13.482;2022-10-03T05:34:03;5.90;99.90
46217;DHT22;47258;59.424;13.482;2022-10-03T05:36:46;5.90;99.90
46217;DHT22;47258;59.424;13.482;2022-10-03T05:39:27;6.00;99.90
46217;DHT22;47258;59.424;13.482;2022-10-03T05:42:10;6.00;99.90
46217;DHT22;47258;59.424;13.482;2022-10-03T05:44:42;6.00;99.90
46217;DHT22;47258;59.424;13.482;2022-10-03T05:47:11;6.00;99.90
46217;DHT22;47258;59.424;13.482;2022-10-03T05:50:14;6.00;99.90
46217;DHT22;47258;59.424;13.482;2022-10-03T05:53:00;6.00;99.90
46217;DHT22;47258;59.424;13.482;2022-10-03T05:55:52;6.10;99.90
46217;DHT22;47258;59.424;13.482;2022-10-03T05:58:50;6.20;99.90
46217;DHT22;47258;59.424;13.482;2022-10-03T06:04:45;6.20;99.90
46217;DHT22;47258;59.424;13.482;2022-10-03T06:07:22;6.30;99.90
46217;DHT22;47258;59.424;13.482;2022-10-03T06:10:22;6.40;99.90
46217;DHT22;47258;59.424;13.482;2022-10-03T06:13:09;6.40;99.90
46217;DHT22;47258;59.424;13.482;2022-10-03T06:15:53;6.40;99.90
46217;DHT22;47258;59.424;13.482;2022-10-03T06:18:53;6.40;99.90
46217;DHT22;47258;59.424;13.482;2022-10-03T06:27:40;6.60;99.90
46217;DHT22;47258;59.424;13.482;2022-10-03T06:30:21;6.60;99.90
46217;DHT22;47258;59.424;13.482;2022-10-03T06:36:37;6.80;99.90
46217;DHT22;47258;59.424;13.482;2022-10-03T06:42:35;7.00;99.90
46217;DHT22;47258;59.424;13.482;2022-10-03T06:45:27;7.10;99.90
46217;DHT22;47258;59.424;13.482;2022-10-03T06:48:24;7.10;99.90
46217;DHT22;47258;59.424;13.482;2022-10-03T06:51:11;7.30;99.90
46217;DHT22;47258;59.424;13.482;2022-10-03T06:54:00;7.40;99.90
46217;DHT22;47258;59.424;13.482;2022-10-03T06:56:59;7.60;99.90
46217;DHT22;47258;59.424;13.482;2022-10-03T06:59:56;7.70;99.90
46217;DHT22;47258;59.424;13.482;2022-10-03T07:03:08;7.80;99.90
46217;DHT22;47258;59.424;13.482;2022-10-03T07:06:02;7.90;99.90
46217;DHT22;47258;59.424;13.482;2022-10-03T07:12:12;8.20;99.90
46217;DHT22;47258;59.424;13.482;2022-10-03T07:17:53;8.20;99.90
46217;DHT22;47258;59.424;13.482;2022-10-03T07:20:44;8.20;99.90
46217;DHT22;47258;59.424;13.482;2022-10-03T07:23:37;8.20;99.90
46217;DHT22;47258;59.424;13.482;2022-10-03T07:26:49;8.40;99.90
46217;DHT22;47258;59.424;13.482;2022-10-03T07:35:45;8.60;99.90
46217;DHT22;47258;59.424;13.482;2022-10-03T07:38:52;8.60;99.90
46217;DHT22;47258;59.424;13.482;2022-10-03T09:35:29;9.90;99.90
